createdAt,value
2019-03-24T00:01:18.686Z,70.12
2019-03-24T00:03:46.472Z,69.72
2019-03-24T00:06:15.235Z,69.36
2019-03-24T00:08:43.961Z,68.77
2019-03-24T00:11:11.614Z,68.62
2019-03-24T00:13:40.352Z,69.89
2019-03-24T00:16:07.932Z,70.29
2019-03-24T00:18:35.610Z,70.26
2019-03-24T00:21:03.281Z,70.07
2019-03-24T00:23:31.007Z,70.17
2019-03-24T00:26:00.211Z,70.23
2019-03-24T00:28:27.812Z,70.47
2019-03-24T00:30:55.409Z,71.18
2019-03-24T00:33:27.240Z,71.50
2019-03-24T00:35:55.920Z,71.79
2019-03-24T00:38:23.698Z,72.35
2019-03-24T00:40:51.327Z,72.44
2019-03-24T00:43:18.911Z,72.76
2019-03-24T00:45:46.684Z,72.45
2019-03-24T00:48:15.472Z,72.11
2019-03-24T00:50:43.166Z,72.26
2019-03-24T00:53:11.894Z,71.12
2019-03-24T00:55:39.532Z,71.13
2019-03-24T00:58:07.291Z,70.52
2019-03-24T01:00:48.913Z,70.48
2019-03-24T01:03:17.678Z,71.10
2019-03-24T01:05:45.590Z,71.39
2019-03-24T01:08:14.213Z,71.67
2019-03-24T01:10:41.767Z,72.51
2019-03-24T01:13:11.168Z,72.41
2019-03-24T01:15:47.388Z,72.06
2019-03-24T01:18:08.823Z,72.05
2019-03-24T01:20:37.516Z,72.34
2019-03-24T01:23:06.465Z,72.22
2019-03-24T01:25:34.065Z,72.61
2019-03-24T01:28:01.656Z,72.86
2019-03-24T01:30:29.407Z,73.07
2019-03-24T01:32:57.318Z,73.17
2019-03-24T01:35:25.987Z,73.14
2019-03-24T01:37:53.629Z,72.90
2019-03-24T01:40:21.806Z,72.80
2019-03-24T01:42:49.403Z,72.68
2019-03-24T01:45:17.095Z,72.99
2019-03-24T01:47:46.103Z,73.20
2019-03-24T01:50:13.863Z,73.10
2019-03-24T01:52:41.771Z,72.96
2019-03-24T01:55:09.758Z,72.71
2019-03-24T01:57:37.331Z,73.13
2019-03-24T02:00:05.409Z,73.45
2019-03-24T02:02:35.435Z,73.59
2019-03-24T02:05:03.481Z,74.35
2019-03-24T02:07:31.124Z,74.25
2019-03-24T02:09:59.060Z,74.36
2019-03-24T02:12:26.647Z,74.60
2019-03-24T02:14:54.649Z,74.73
2019-03-24T02:17:22.215Z,75.32
2019-03-24T02:19:49.811Z,75.41
2019-03-24T02:22:17.805Z,74.99
2019-03-24T02:24:45.680Z,74.83
2019-03-24T02:27:13.272Z,74.35
2019-03-24T02:29:41.452Z,74.15
2019-03-24T02:32:09.089Z,73.92
2019-03-24T02:34:38.118Z,73.68
2019-03-24T02:37:06.125Z,73.84
2019-03-24T02:39:33.929Z,73.88
2019-03-24T02:42:02.067Z,73.18
2019-03-24T02:44:29.714Z,72.72
2019-03-24T02:46:57.423Z,72.92
2019-03-24T02:49:26.334Z,73.66
2019-03-24T02:51:54.043Z,73.19
2019-03-24T02:54:22.148Z,72.77
2019-03-24T02:56:50.613Z,72.20
2019-03-24T02:59:18.649Z,72.05
2019-03-24T03:01:46.521Z,71.94
2019-03-24T03:04:15.197Z,71.60
2019-03-24T03:06:44.125Z,71.54
2019-03-24T03:09:12.036Z,72.04
2019-03-24T03:11:39.817Z,71.85
2019-03-24T03:14:07.455Z,72.01
2019-03-24T03:16:38.661Z,71.77
2019-03-24T03:19:04.558Z,72.34
2019-03-24T03:21:32.288Z,71.98
2019-03-24T03:24:00.571Z,72.43
2019-03-24T03:26:28.217Z,72.52
2019-03-24T03:28:55.853Z,72.75
2019-03-24T03:31:23.419Z,72.24
2019-03-24T03:33:51.202Z,72.00
2019-03-24T03:36:19.876Z,71.64
2019-03-24T03:38:47.940Z,71.55
2019-03-24T03:41:15.623Z,72.37
2019-03-24T03:43:43.254Z,72.61
2019-03-24T03:46:11.537Z,72.56
2019-03-24T03:48:39.491Z,72.31
2019-03-24T03:51:07.156Z,72.37
2019-03-24T03:53:35.181Z,73.27
2019-03-24T03:56:02.805Z,73.41
2019-03-24T03:58:30.565Z,73.78
2019-03-24T04:00:58.559Z,73.64
2019-03-24T04:03:26.222Z,73.69
2019-03-24T04:05:54.027Z,73.79
2019-03-24T04:08:21.819Z,74.18
2019-03-24T04:10:49.581Z,74.08
2019-03-24T04:13:17.571Z,74.11
2019-03-24T04:15:45.587Z,73.96
2019-03-24T04:18:13.154Z,73.89
2019-03-24T04:20:40.786Z,74.14
2019-03-24T04:23:09.076Z,74.55
2019-03-24T04:25:37.095Z,75.08
2019-03-24T04:28:04.775Z,75.44
2019-03-24T04:30:32.914Z,75.36
2019-03-24T04:33:01.500Z,75.63
2019-03-24T04:35:29.241Z,75.93
2019-03-24T04:37:56.822Z,75.87
2019-03-24T04:40:24.377Z,75.62
2019-03-24T04:42:52.569Z,75.68
2019-03-24T04:45:20.674Z,75.70
2019-03-24T04:47:48.344Z,75.89
2019-03-24T04:50:15.953Z,75.74
2019-03-24T04:52:44.069Z,75.36
2019-03-24T04:55:11.775Z,74.63
2019-03-24T04:57:39.367Z,74.71
2019-03-24T05:00:07.764Z,74.64
2019-03-24T05:02:35.962Z,74.41
2019-03-24T05:05:03.750Z,75.15
2019-03-24T05:07:31.567Z,75.56
2019-03-24T05:09:59.603Z,75.78
2019-03-24T05:12:27.198Z,75.92
2019-03-24T05:14:55.243Z,75.44
2019-03-24T05:17:26.994Z,75.15
2019-03-24T05:19:52.340Z,74.37
2019-03-24T05:22:21.716Z,73.98
2019-03-24T05:24:49.913Z,73.85
2019-03-24T05:27:17.635Z,73.57
2019-03-24T05:29:45.474Z,73.77
2019-03-24T05:32:13.048Z,73.42
2019-03-24T05:34:40.812Z,73.38
2019-03-24T05:37:08.387Z,73.44
2019-03-24T05:39:35.964Z,73.24
2019-03-24T05:42:03.783Z,73.17
2019-03-24T05:44:31.366Z,73.29
2019-03-24T05:46:59.227Z,73.35
2019-03-24T05:49:26.966Z,72.96
2019-03-24T05:51:54.530Z,73.97
2019-03-24T05:54:22.284Z,74.71
2019-03-24T05:56:50.026Z,74.34
2019-03-24T05:59:17.596Z,74.07
2019-03-24T06:01:45.285Z,74.47
2019-03-24T06:04:13.315Z,74.23
2019-03-24T06:06:41.061Z,74.68
2019-03-24T06:09:08.632Z,75.56
2019-03-24T06:11:36.264Z,75.40
2019-03-24T06:14:04.016Z,75.19
2019-03-24T06:16:31.679Z,75.08
2019-03-24T06:19:00.197Z,75.30
2019-03-24T06:21:27.774Z,74.71
2019-03-24T06:23:55.556Z,74.71
2019-03-24T06:26:23.933Z,75.03
2019-03-24T06:28:51.527Z,74.22
2019-03-24T06:31:19.097Z,74.21
2019-03-24T06:33:47.153Z,74.60
2019-03-24T06:36:14.734Z,74.71
2019-03-24T06:38:42.473Z,74.18
2019-03-24T06:41:10.462Z,73.87
2019-03-24T06:43:38.119Z,73.57
2019-03-24T06:46:05.700Z,73.55
2019-03-24T06:48:34.887Z,73.36
2019-03-24T06:51:02.444Z,72.45
2019-03-24T06:53:30.134Z,71.94
2019-03-24T06:55:58.077Z,71.54
2019-03-24T06:58:25.838Z,70.93
2019-03-24T07:00:53.433Z,70.68
2019-03-24T07:03:21.068Z,70.91
2019-03-24T07:05:49.745Z,69.73
2019-03-24T07:08:17.496Z,69.82
2019-03-24T07:10:46.126Z,69.09
2019-03-24T07:13:13.957Z,68.15
2019-03-24T07:15:41.541Z,67.65
2019-03-24T07:18:09.142Z,68.24
2019-03-24T07:20:36.830Z,66.50
2019-03-24T07:23:04.451Z,64.22
2019-03-24T07:25:32.531Z,64.18
2019-03-24T07:28:00.211Z,61.39
2019-03-24T07:30:27.894Z,59.90
2019-03-24T07:32:56.048Z,60.81
2019-03-24T07:35:23.728Z,60.58
2019-03-24T07:37:51.442Z,60.06
2019-03-24T07:40:19.349Z,61.03
2019-03-24T07:42:47.083Z,61.96
2019-03-24T07:45:15.669Z,58.89
2019-03-24T07:47:45.448Z,60.36
2019-03-24T07:50:13.831Z,61.44
2019-03-24T07:52:41.935Z,61.38
2019-03-24T07:55:09.816Z,60.85
2019-03-24T07:57:37.503Z,60.28
2019-03-24T08:00:06.375Z,59.62
2019-03-24T08:02:34.406Z,60.42
2019-03-24T08:05:02.112Z,59.22
2019-03-24T08:07:33.363Z,59.45
2019-03-24T08:10:01.020Z,58.54
2019-03-24T08:12:28.572Z,56.11
2019-03-24T08:14:57.067Z,57.02
2019-03-24T08:17:25.904Z,57.46
2019-03-24T08:19:53.648Z,56.18
2019-03-24T08:22:21.843Z,55.06
2019-03-24T08:24:49.442Z,55.59
2019-03-24T08:27:18.118Z,55.02
2019-03-24T08:29:45.943Z,56.86
2019-03-24T08:32:13.619Z,56.70
2019-03-24T08:34:41.681Z,56.04
2019-03-24T08:37:10.429Z,55.96
2019-03-24T08:39:38.165Z,55.97
2019-03-24T08:42:06.137Z,54.17
2019-03-24T08:44:33.772Z,53.16
2019-03-24T08:47:01.457Z,51.20
2019-03-24T08:49:30.210Z,49.84
2019-03-24T08:51:58.232Z,50.22
2019-03-24T08:54:25.804Z,50.72
2019-03-24T08:56:53.485Z,51.58
2019-03-24T08:59:21.098Z,52.27
2019-03-24T09:01:48.687Z,51.04
2019-03-24T09:04:16.413Z,48.56
2019-03-24T09:06:44.352Z,48.40
2019-03-24T09:09:12.108Z,52.39
2019-03-24T09:11:40.208Z,53.08
2019-03-24T09:14:08.944Z,52.56
2019-03-24T09:16:36.639Z,50.63
2019-03-24T09:19:04.495Z,51.25
2019-03-24T09:21:32.237Z,51.36
2019-03-24T09:24:01.222Z,49.26
2019-03-24T09:26:29.444Z,47.33
2019-03-24T09:28:59.195Z,50.33
2019-03-24T09:31:26.630Z,51.37
2019-03-24T09:33:54.283Z,48.73
2019-03-24T09:36:21.928Z,48.68
2019-03-24T09:38:49.510Z,47.19
2019-03-24T09:41:17.496Z,48.14
2019-03-24T09:43:45.104Z,50.18
2019-03-24T09:46:12.715Z,48.49
2019-03-24T09:48:40.391Z,51.04
2019-03-24T09:51:08.102Z,50.81
2019-03-24T09:53:35.711Z,49.94
2019-03-24T09:56:03.509Z,47.54
2019-03-24T09:58:31.201Z,48.77
2019-03-24T10:00:58.881Z,47.44
2019-03-24T10:03:26.885Z,45.38
2019-03-24T10:05:54.810Z,44.08
2019-03-24T10:08:22.932Z,47.03
2019-03-24T10:10:50.753Z,47.74
2019-03-24T10:13:19.648Z,47.88
2019-03-24T10:15:54.435Z,46.80
2019-03-24T10:18:24.784Z,43.56
2019-03-24T10:20:52.374Z,42.27
2019-03-24T10:23:28.443Z,40.88
2019-03-24T10:25:56.735Z,40.26
2019-03-24T10:28:24.672Z,39.77
2019-03-24T10:30:52.512Z,39.93
2019-03-24T10:33:20.195Z,40.31
2019-03-24T10:35:48.337Z,41.12
2019-03-24T10:38:16.248Z,41.06
2019-03-24T10:40:44.171Z,38.05
2019-03-24T10:43:14.437Z,37.41
2019-03-24T10:45:42.176Z,38.66
2019-03-24T10:48:09.933Z,35.87
2019-03-24T10:50:37.508Z,32.39
2019-03-24T10:53:05.345Z,33.99
2019-03-24T10:55:33.004Z,35.54
2019-03-24T10:58:00.944Z,37.06
2019-03-24T11:00:42.334Z,37.44
2019-03-24T11:03:12.196Z,33.70
2019-03-24T11:05:39.827Z,33.43
2019-03-24T11:08:08.690Z,30.93
2019-03-24T11:10:36.341Z,32.58
2019-03-24T11:13:03.951Z,34.30
2019-03-24T11:15:31.900Z,33.13
2019-03-24T11:18:01.184Z,32.64
2019-03-24T11:20:30.149Z,31.75
2019-03-24T11:22:58.914Z,32.38
2019-03-24T11:25:26.720Z,33.13
2019-03-24T11:27:54.361Z,36.26
2019-03-24T11:30:22.460Z,32.63
2019-03-24T11:32:50.049Z,35.86
2019-03-24T11:35:17.815Z,38.37
2019-03-24T11:37:45.491Z,41.29
2019-03-24T11:40:13.483Z,37.77
2019-03-24T11:42:41.178Z,35.40
2019-03-24T11:45:10.175Z,32.02
2019-03-24T11:47:37.972Z,26.02
2019-03-24T11:50:06.869Z,26.38
2019-03-24T11:52:34.911Z,27.87
2019-03-24T11:55:02.726Z,27.62
2019-03-24T11:57:30.406Z,26.12
2019-03-24T11:59:58.668Z,30.06
2019-03-24T12:02:26.446Z,32.93
2019-03-24T12:04:54.089Z,29.36
2019-03-24T12:07:22.165Z,28.58
2019-03-24T12:09:49.784Z,34.50
2019-03-24T12:12:17.403Z,37.83
2019-03-24T12:14:45.129Z,39.24
2019-03-24T12:17:13.281Z,38.15
2019-03-24T12:19:40.995Z,37.20
2019-03-24T12:22:08.742Z,36.00
2019-03-24T12:24:36.340Z,38.89
2019-03-24T12:27:05.878Z,41.28
2019-03-24T12:29:33.562Z,42.23
2019-03-24T12:32:01.341Z,42.03
2019-03-24T12:34:29.013Z,42.84
2019-03-24T12:36:56.638Z,45.22
2019-03-24T12:39:24.274Z,45.68
2019-03-24T12:41:51.896Z,45.38
2019-03-24T12:44:21.244Z,44.43
2019-03-24T12:46:50.071Z,45.25
2019-03-24T12:49:17.750Z,44.31
2019-03-24T12:51:45.413Z,45.41
2019-03-24T12:54:13.186Z,44.22
2019-03-24T12:56:41.085Z,43.93
2019-03-24T12:59:08.862Z,42.41
2019-03-24T13:01:36.483Z,43.71
2019-03-24T13:04:04.741Z,42.85
2019-03-24T13:06:35.793Z,45.10
2019-03-24T13:09:04.533Z,45.80
2019-03-24T13:11:33.529Z,46.38
2019-03-24T13:14:01.191Z,47.09
2019-03-24T13:16:29.274Z,47.80
2019-03-24T13:18:57.030Z,48.17
2019-03-24T13:21:27.314Z,48.41
2019-03-24T13:23:55.112Z,48.12
2019-03-24T13:26:22.778Z,47.66
2019-03-24T13:28:50.428Z,46.25
2019-03-24T13:31:18.635Z,46.18
2019-03-24T13:33:47.162Z,45.74
2019-03-24T13:36:14.915Z,44.42
2019-03-24T13:38:42.536Z,45.94
2019-03-24T13:41:12.072Z,46.92
2019-03-24T13:43:39.830Z,46.29
2019-03-24T13:46:07.799Z,45.31
2019-03-24T13:48:35.453Z,45.05
2019-03-24T13:51:03.205Z,44.76
2019-03-24T13:53:30.794Z,45.33
2019-03-24T13:55:58.389Z,43.41
2019-03-24T13:58:26.114Z,40.67
2019-03-24T14:00:53.808Z,43.96
2019-03-24T14:03:21.408Z,43.84
2019-03-24T14:05:49.618Z,44.33
2019-03-24T14:08:17.267Z,43.79
2019-03-24T14:10:44.866Z,44.08
2019-03-24T14:13:12.951Z,43.27
2019-03-24T14:15:40.612Z,39.21
2019-03-24T14:18:08.416Z,35.73
2019-03-24T14:20:43.277Z,33.65
2019-03-24T14:23:05.860Z,35.77
2019-03-24T14:25:33.493Z,37.48
2019-03-24T14:28:01.562Z,36.34
2019-03-24T14:30:57.536Z,37.69
2019-03-24T14:33:25.303Z,36.74
2019-03-24T14:35:52.997Z,36.24
2019-03-24T14:38:20.719Z,36.38
2019-03-24T14:40:48.695Z,39.60
2019-03-24T14:43:16.676Z,39.15
2019-03-24T14:45:45.874Z,38.58
2019-03-24T14:48:13.586Z,39.35
2019-03-24T14:50:41.217Z,40.77
2019-03-24T14:53:08.957Z,42.48
2019-03-24T14:55:36.678Z,42.63
2019-03-24T14:58:04.460Z,44.60
2019-03-24T15:00:36.551Z,45.33
2019-03-24T15:03:04.869Z,46.49
2019-03-24T15:05:33.168Z,47.71
2019-03-24T15:08:04.000Z,47.87
2019-03-24T15:10:31.748Z,48.07
2019-03-24T15:12:59.412Z,48.77
2019-03-24T15:15:27.508Z,48.30
2019-03-24T15:17:55.342Z,46.87
2019-03-24T15:20:22.993Z,47.18
2019-03-24T15:22:51.249Z,46.63
2019-03-24T15:25:18.862Z,46.30
2019-03-24T15:27:46.612Z,46.70
2019-03-24T15:30:14.603Z,47.56
2019-03-24T15:32:42.370Z,47.15
2019-03-24T15:35:10.222Z,46.95
2019-03-24T15:37:38.316Z,47.79
2019-03-24T15:40:07.433Z,48.68
2019-03-24T15:42:35.250Z,48.78
2019-03-24T15:45:03.966Z,49.21
2019-03-24T15:47:31.556Z,49.24
2019-03-24T15:49:59.366Z,49.53
2019-03-24T15:52:27.123Z,48.57
2019-03-24T15:54:54.993Z,48.77
2019-03-24T15:57:22.726Z,49.03
2019-03-24T15:59:50.558Z,49.25
2019-03-24T16:02:18.496Z,49.97
2019-03-24T16:04:46.499Z,50.56
2019-03-24T16:07:14.201Z,50.63
2019-03-24T16:09:41.875Z,51.03
2019-03-24T16:12:09.703Z,51.35
2019-03-24T16:14:37.356Z,51.15
2019-03-24T16:17:05.036Z,51.28
2019-03-24T16:19:33.186Z,51.15
2019-03-24T16:22:02.014Z,50.89
2019-03-24T16:24:29.711Z,50.60
2019-03-24T16:26:58.839Z,51.05
2019-03-24T16:29:26.502Z,50.79
2019-03-24T16:31:54.555Z,51.16
2019-03-24T16:34:22.178Z,51.08
2019-03-24T16:37:11.131Z,51.49
2019-03-24T16:39:38.860Z,51.40
2019-03-24T16:42:06.527Z,51.48
2019-03-24T16:44:34.262Z,51.53
2019-03-24T16:47:02.389Z,51.10
2019-03-24T16:49:30.039Z,51.18
2019-03-24T16:52:04.229Z,51.13
2019-03-24T16:54:32.104Z,51.38
2019-03-24T16:56:59.809Z,51.09
2019-03-24T16:59:27.443Z,51.00
2019-03-24T17:01:55.336Z,50.97
2019-03-24T17:04:22.966Z,51.07
2019-03-24T17:06:50.962Z,50.72
2019-03-24T17:09:18.617Z,50.23
2019-03-24T17:11:46.327Z,49.35
2019-03-24T17:14:14.190Z,47.04
2019-03-24T17:16:42.034Z,45.59
2019-03-24T17:19:09.981Z,44.34
2019-03-24T17:21:49.906Z,45.82
2019-03-24T17:24:13.489Z,47.90
2019-03-24T17:26:41.135Z,47.64
2019-03-24T17:29:08.964Z,48.54
2019-03-24T17:31:39.158Z,49.15
2019-03-24T17:34:07.611Z,50.09
2019-03-24T17:36:35.359Z,50.99
2019-03-24T17:39:05.662Z,51.92
2019-03-24T17:41:33.406Z,52.45
2019-03-24T17:44:03.379Z,53.13
2019-03-24T17:46:31.124Z,53.64
2019-03-24T17:49:00.837Z,54.20
2019-03-24T17:51:31.352Z,54.61
2019-03-24T17:53:59.363Z,55.11
2019-03-24T17:56:27.078Z,55.25
2019-03-24T17:58:54.837Z,55.15
2019-03-24T18:01:22.464Z,55.98
2019-03-24T18:03:50.189Z,56.61
2019-03-24T18:06:17.837Z,56.98
2019-03-24T18:08:45.990Z,57.24
2019-03-24T18:11:13.741Z,56.88
2019-03-24T18:13:41.733Z,57.19
2019-03-24T18:16:09.543Z,57.38
2019-03-24T18:18:37.576Z,57.80
2019-03-24T18:21:05.376Z,58.06
2019-03-24T18:23:33.355Z,58.46
2019-03-24T18:26:01.834Z,58.59
2019-03-24T18:28:29.563Z,58.97
2019-03-24T18:30:58.561Z,59.10
2019-03-24T18:33:26.493Z,59.40
2019-03-24T18:35:54.676Z,59.36
2019-03-24T18:38:22.373Z,59.20
2019-03-24T18:40:50.206Z,59.17
2019-03-24T18:43:17.865Z,59.27
2019-03-24T18:45:45.708Z,59.30
2019-03-24T18:48:13.448Z,59.62
2019-03-24T18:50:41.399Z,59.71
2019-03-24T18:53:10.274Z,59.87
2019-03-24T18:55:39.644Z,60.16
2019-03-24T18:58:07.445Z,60.23
2019-03-24T19:00:35.177Z,60.19
2019-03-24T19:03:03.462Z,60.38
2019-03-24T19:05:31.521Z,60.54
2019-03-24T19:07:59.201Z,60.76
2019-03-24T19:10:27.844Z,61.23
2019-03-24T19:12:55.860Z,61.80
2019-03-24T19:15:23.551Z,62.23
2019-03-24T19:17:52.057Z,62.43
2019-03-24T19:20:20.012Z,62.89
2019-03-24T19:22:48.139Z,63.03
2019-03-24T19:25:16.016Z,63.51
2019-03-24T19:27:43.962Z,63.87
2019-03-24T19:30:13.868Z,64.00
2019-03-24T19:32:42.346Z,64.06
2019-03-24T19:35:10.406Z,64.00
2019-03-24T19:37:41.434Z,64.11
2019-03-24T19:40:25.227Z,64.29
2019-03-24T19:42:53.347Z,64.27
2019-03-24T19:45:21.257Z,64.23
2019-03-24T19:47:50.258Z,64.14
2019-03-24T19:50:18.089Z,63.86
2019-03-24T19:52:45.980Z,63.92
2019-03-24T19:55:16.378Z,63.67
2019-03-24T19:57:44.151Z,63.95
2019-03-24T20:00:13.016Z,63.29
2019-03-24T20:02:40.891Z,63.05
2019-03-24T20:05:09.289Z,62.62
2019-03-24T20:07:47.381Z,62.01
2019-03-24T20:10:07.143Z,61.71
2019-03-24T20:12:36.007Z,61.17
2019-03-24T20:15:04.631Z,60.41
2019-03-24T20:17:32.360Z,59.92
2019-03-24T20:20:00.353Z,58.60
2019-03-24T20:22:28.525Z,56.72
2019-03-24T20:24:56.331Z,56.05
2019-03-24T20:27:25.931Z,55.33
2019-03-24T20:29:53.624Z,54.80
2019-03-24T20:32:21.695Z,54.47
2019-03-24T20:34:49.505Z,54.30
2019-03-24T20:37:17.175Z,52.84
2019-03-24T20:39:46.769Z,52.31
2019-03-24T20:42:14.423Z,52.56
2019-03-24T20:44:42.220Z,52.73
2019-03-24T20:47:14.434Z,52.55
2019-03-24T20:49:42.183Z,52.97
2019-03-24T20:52:10.461Z,52.81
2019-03-24T20:54:41.259Z,53.20
2019-03-24T20:57:09.023Z,53.59
2019-03-24T20:59:36.900Z,54.43
2019-03-24T21:02:04.774Z,54.49
2019-03-24T21:04:32.625Z,54.90
2019-03-24T21:07:00.805Z,55.09
2019-03-24T21:09:28.674Z,55.11
2019-03-24T21:11:56.399Z,55.02
2019-03-24T21:14:26.299Z,54.32
2019-03-24T21:16:56.763Z,53.61
2019-03-24T21:19:24.429Z,53.47
2019-03-24T21:21:52.061Z,53.39
2019-03-24T21:24:19.703Z,54.07
2019-03-24T21:26:47.428Z,53.63
2019-03-24T21:29:15.101Z,53.65
2019-03-24T21:31:42.862Z,53.73
2019-03-24T21:34:11.206Z,53.79
2019-03-24T21:36:38.850Z,53.64
2019-03-24T21:39:07.022Z,54.25
2019-03-24T21:41:34.861Z,54.30
2019-03-24T21:44:02.479Z,54.65
2019-03-24T21:46:30.098Z,54.39
2019-03-24T21:48:58.201Z,54.29
2019-03-24T21:51:26.000Z,54.41
2019-03-24T21:53:53.844Z,54.53
2019-03-24T21:56:21.988Z,54.83
2019-03-24T21:58:49.721Z,54.55
2019-03-24T22:01:17.435Z,54.90
2019-03-24T22:03:45.368Z,54.77
2019-03-24T22:06:14.042Z,54.52
2019-03-24T22:08:41.925Z,54.25
2019-03-24T22:11:10.005Z,54.45
2019-03-24T22:13:37.917Z,54.20
2019-03-24T22:16:05.740Z,54.44
2019-03-24T22:18:33.452Z,54.35
2019-03-24T22:21:03.717Z,54.45
2019-03-24T22:23:31.606Z,54.66
2019-03-24T22:25:59.201Z,54.72
2019-03-24T22:28:26.825Z,54.55
2019-03-24T22:30:54.618Z,55.27
2019-03-24T22:33:22.378Z,55.46
2019-03-24T22:35:50.002Z,55.02
2019-03-24T22:38:17.635Z,55.95
2019-03-24T22:40:46.601Z,55.78
2019-03-24T22:43:14.673Z,55.51
2019-03-24T22:45:42.613Z,55.68
2019-03-24T22:48:10.334Z,54.54
2019-03-24T22:50:38.146Z,54.85
2019-03-24T22:53:05.899Z,55.44
2019-03-24T22:55:33.860Z,54.85
2019-03-24T22:58:01.477Z,53.83
2019-03-24T23:00:47.976Z,55.53
2019-03-24T23:03:17.057Z,55.38
2019-03-24T23:05:44.792Z,55.86
2019-03-24T23:08:12.758Z,55.73
2019-03-24T23:10:40.774Z,55.58
2019-03-24T23:13:08.374Z,55.57
2019-03-24T23:15:36.044Z,55.21
2019-03-24T23:18:03.651Z,55.03
2019-03-24T23:20:31.287Z,54.88
2019-03-24T23:22:59.280Z,55.60
2019-03-24T23:25:28.567Z,56.19
2019-03-24T23:27:56.397Z,55.93
2019-03-24T23:30:25.192Z,56.48
2019-03-24T23:32:53.715Z,57.36
2019-03-24T23:35:21.270Z,57.79
2019-03-24T23:37:49.342Z,58.13
2019-03-24T23:40:16.936Z,58.20
2019-03-24T23:42:44.686Z,58.52
2019-03-24T23:45:12.595Z,58.55
2019-03-24T23:47:40.241Z,58.89
2019-03-24T23:50:08.310Z,59.58
2019-03-24T23:52:36.638Z,59.59
2019-03-24T23:55:04.588Z,60.92
2019-03-24T23:57:32.167Z,61.49
2019-03-24T23:59:59.931Z,61.61
